Latest Coastal Weather Observations for Moruya Airport

IDN60701

Issued at 10:55 am EST Thursday 17 April 2014 (issued every 10 minutes, with the page automatically refreshed every 10 minutes)

About coastal observations | Map of coastal stations | Coastal observations for NSW | Marine services | Other Formats
Station Details ID: 069148 Name: MORUYA AIRPORT AWS Lat: -35.90 Lon: 150.14 Height: 4.0 m
Data from the previous 72 hours. | See also: Recent months for locations in New South Wales
Date/Time
EST
Temp

°C
Wind Pressure Rain
since 9am
mm
Weather Cloud Vis
km
Sea
Height
m
Swell
Dir
 
Speed
knots
Gust
knots
hPa Trend Height
m
Period
s
Dir
17/10:30am 20.4 S 10 15 1020.5 - 0.0 - - 10 - - - -
17/10:00am 19.9 SSW 10 14 1020.6 - 0.0 - - 10 - - - -
17/09:30am 18.7 SW 7 9 1020.6 - 0.0 - - 10 - - - -
17/09:00am 17.2 SW 7 9 1020.5 - 0.0 - - 10 - - - -
17/08:30am 15.3 WSW 5 8 1020.5 - 0.0 - - 10 - - - -
17/08:00am 13.9 WSW 4 7 1020.3 - 0.0 - - 10 - - - -
17/07:30am 12.3 W 4 5 1020.1 - 0.0 - - 10 - - - -
17/07:00am 11.2 WSW 3 5 1019.8 - 0.0 - - 10 - - - -
17/06:30am 10.9 W 6 8 1019.4 - 0.0 - - 10 - - - -
17/06:00am 10.9 W 5 7 1019.1 - 0.0 - - 10 - - - -
17/05:30am 10.9 W 5 7 1018.9 - 0.0 - - 10 - - - -
17/05:00am 11.5 WSW 4 7 1018.9 - 0.0 - - 10 - - - -
17/04:30am 11.4 WSW 7 10 1018.6 - 0.0 - - 10 - - - -
17/04:00am 11.0 W 3 5 1018.5 - 0.0 - - 10 - - - -
17/03:30am 11.6 W 5 7 1018.5 - 0.0 - - 10 - - - -
17/03:00am 11.7 WSW 5 8 1018.4 - 0.0 - - 10 - - - -
17/02:30am 11.8 W 4 6 1018.5 - 0.0 - - 10 - - - -
17/02:00am 12.6 WSW 7 9 1018.8 - 0.0 - - 10 - - - -
17/01:30am 12.1 WSW 5 7 1019.1 - 0.0 - - 10 - - - -
17/01:00am 12.6 W 5 7 1019.2 - 0.0 - - 10 - - - -
17/12:30am 12.6 WSW 5 7 1019.5 - 0.0 - - 10 - - - -
17/12:00am 13.5 W 6 9 1019.4 - 0.0 - - 10 - - - -
 
Date/Time
EST
Temp

°C
Wind Pressure Rain
since 9am
mm
Weather Cloud Vis
km
Sea
Height
m
Swell
Dir
 
Speed
knots
Gust
knots
hPa Trend Height
m
Period
s
Dir
16/11:30pm 13.7 W 6 8 1019.7 - 0.0 - - 10 - - - -
16/11:00pm 14.0 W 6 9 1019.7 - 0.0 - - 10 - - - -
16/10:30pm 14.0 W 5 7 1019.9 - 0.0 - - 10 - - - -
16/10:00pm 14.0 W 6 9 1020.1 - 0.0 - - 10 - - - -
16/09:30pm 13.9 WNW 6 9 1020.1 - 0.0 - - 10 - - - -
16/09:00pm 14.2 W 6 8 1020.0 - 0.0 - - 10 - - - -
16/08:30pm 14.4 W 6 9 1019.9 - 0.0 - Partly cloudy 10 - - - -
16/08:00pm 14.2 WNW 6 8 1019.6 - 0.0 - - 10 - - - -
16/07:30pm 13.4 W 4 5 1019.4 - 0.0 - - 10 - - - -
16/07:00pm 13.8 W 4 5 1019.3 - 0.0 - - 10 - - - -
16/06:30pm 14.1 W 4 6 1019.2 - 0.0 - - 10 - - - -
16/06:00pm 15.8 WSW 4 5 1018.8 - 0.0 - - 10 - - - -
16/05:30pm 18.1 S 6 8 1018.6 - 0.0 - - 10 - - - -
16/05:00pm 19.4 S 8 10 1018.4 - 0.0 - - 10 - - - -
16/04:30pm 20.2 SSE 7 11 1018.2 - 0.0 - - 10 - - - -
16/04:00pm 20.6 SSE 8 12 1018.1 - 0.0 - - 10 - - - -
16/03:30pm 20.7 SSE 8 12 1018.2 - 0.0 - - 10 - - - -
16/03:00pm 21.0 SSE 10 14 1018.3 - 0.0 - - 10 - - - -
16/02:30pm 20.8 SE 10 15 1018.6 - 0.0 - - 10 - - - -
16/02:00pm 20.5 SSE 10 14 1018.6 - 0.0 - - 10 - - - -
16/01:30pm 21.1 SSE 10 12 1018.5 - 0.0 - Partly cloudy 10 - - - -
16/01:00pm 21.0 S 7 10 1018.6 - 0.0 - - 10 - - - -
16/12:30pm 21.7 SSW 8 14 1019.0 - 0.0 - - 10 - - - -
16/12:00pm 21.1 SW 9 13 1019.6 - 0.0 - - 10 - - - -
16/11:30am 20.8 SW 8 11 1020.1 - 0.0 - - 10 - - - -
16/11:00am 20.0 SSW 10 13 1020.5 - 0.0 - - 10 - - - -
16/10:30am 20.0 SW 11 16 1020.7 - 0.0 - - 10 - - - -
16/10:00am 19.4 SSW 10 15 1021.0 - 0.0 - - 10 - - - -
16/09:30am 18.7 SW 12 17 1021.2 - 0.0 - - 10 - - - -
16/09:00am 17.2 W 7 9 1021.3 - 0.0 - - 10 - - - -
16/08:30am 15.8 WSW 6 8 1021.4 - 0.0 - - 10 - - - -
16/08:00am 14.6 W 7 9 1021.3 - 0.0 - - 10 - - - -
16/07:30am 13.6 W 6 8 1021.1 - 0.0 - - 10 - - - -
16/07:00am 12.0 WSW 6 8 1020.8 - 0.0 - - 10 - - - -
16/06:30am 11.6 W 6 9 1020.6 - 0.0 - - 10 - - - -
16/06:00am 11.7 W 6 8 1020.2 - 0.0 - - 10 - - - -
16/05:30am 11.9 W 5 7 1020.4 - 0.0 - - 10 - - - -
16/05:00am 11.9 W 6 7 1020.3 - 0.0 - - 10 - - - -
16/04:30am 12.2 W 5 7 1020.3 - 0.0 - - 10 - - - -
16/04:00am 12.5 W 6 9 1020.3 - 0.0 - - 10 - - - -
16/03:30am 12.6 W 7 11 1020.2 - 0.0 - - 10 - - - -
16/03:00am 12.1 W 5 7 1020.2 - 0.0 - - 10 - - - -
16/02:30am 13.5 WSW 7 9 1020.6 - 0.0 - - 10 - - - -
16/02:00am 13.2 WSW 6 8 1020.9 - 0.0 - - 10 - - - -
16/01:30am 13.4 W 5 8 1021.3 - 0.0 - - 10 - - - -
16/01:00am 14.4 WSW 7 10 1021.7 - 0.0 - - 10 - - - -
16/12:30am 14.7 SW 9 12 1021.8 - 0.0 - - 10 - - - -
16/12:00am 14.6 SW 8 12 1021.7 - 0.0 - - 10 - - - -
 
Date/Time
EST
Temp

°C
Wind Pressure Rain
since 9am
mm
Weather Cloud Vis
km
Sea
Height
m
Swell
Dir
 
Speed
knots
Gust
knots
hPa Trend Height
m
Period
s
Dir
15/11:30pm 14.6 SW 8 11 1022.0 - 0.0 - - 10 - - - -
15/11:00pm 14.8 WSW 8 11 1022.2 - 0.0 - - 10 - - - -
15/10:30pm 14.9 WSW 7 9 1022.4 - 0.0 - - 10 - - - -
15/10:00pm 14.9 WSW 8 11 1022.4 - 0.0 - - 10 - - - -
15/09:30pm 15.1 WSW 8 13 1022.4 - 0.0 - - 10 - - - -
15/09:00pm 15.1 WSW 7 11 1022.3 - 0.0 - - 10 - - - -
15/08:30pm 15.5 WSW 8 12 1022.2 - 0.0 - - 10 - - - -
15/08:00pm 15.9 WSW 7 12 1022.1 - 0.0 - - 10 - - - -
15/07:30pm 16.0 SW 9 11 1022.0 - 0.0 - - 10 - - - -
15/07:00pm 16.5 SW 9 11 1021.8 - 0.0 - Cloudy 10 - - - -
15/06:30pm 16.7 WSW 8 11 1021.7 - 0.0 - Partly cloudy 10 - - - -
15/06:00pm 16.8 SW 9 12 1021.2 - 0.0 - Mostly clear 10 - - - -
15/05:30pm 17.3 SW 10 13 1021.0 - 0.0 - Partly cloudy 10 - - - -
15/05:00pm 17.8 SSW 11 16 1020.7 - 0.0 - Partly cloudy 10 - - - -
15/04:30pm 18.8 S 13 18 1020.4 - 0.0 - Cloudy 10 - - - -
15/04:00pm 18.4 S 8 11 1020.5 - 0.0 - Partly cloudy 10 - - - -
15/03:30pm 18.5 S 12 17 1020.5 - 0.0 - Cloudy 10 - - - -
15/03:00pm 19.0 S 17 25 1020.3 - 0.0 - Mostly clear 10 - - - -
15/02:30pm 20.3 S 13 19 1020.2 - 0.0 - Partly cloudy 10 - - - -
15/02:00pm 19.7 S 13 18 1020.1 - 0.0 - Cloudy 10 - - - -
15/01:30pm 19.8 S 13 21 1019.8 - 0.0 - Partly cloudy 10 - - - -
15/01:00pm 20.7 S 12 15 1019.8 - 0.0 - Partly cloudy 10 - - - -
15/12:30pm 21.4 S 11 15 1020.1 - 0.0 - Partly cloudy 10 - - - -
15/12:00pm 20.7 SSW 9 13 1020.6 - 0.0 - - 10 - - - -
15/11:30am 21.1 SSW 9 15 1021.0 - 0.0 - - 10 - - - -
15/11:00am 20.5 SSW 13 19 1021.2 - 0.0 - - 10 - - - -
15/10:30am 20.1 SSW 13 20 1021.4 - 0.0 - - 10 - - - -
15/10:00am 19.0 SSW 13 19 1021.5 - 0.0 - - 10 - - - -
15/09:30am 18.8 SSW 11 15 1021.7 - 0.0 - - 10 - - - -
15/09:00am 16.6 WSW 7 10 1021.7 - 0.0 - - 10 - - - -
15/08:30am 15.4 WSW 6 9 1021.9 - 0.0 - Partly cloudy 10 - - - -
15/08:00am 13.9 WSW 6 8 1021.7 - 0.0 - - 10 - - - -
15/07:30am 12.4 WSW 5 8 1021.5 - 0.0 - - 10 - - - -
15/07:00am 11.0 WSW 7 9 1021.3 - 0.0 - - 10 - - - -
15/06:30am 10.3 WSW 6 8 1021.1 - 0.0 - - 10 - - - -
15/06:00am 10.8 W 6 8 1020.9 - 0.0 - - 10 - - - -
15/05:30am 10.5 W 6 8 1020.9 - 0.0 - - 10 - - - -
15/05:00am 10.3 W 5 7 1020.8 - 0.0 - - 10 - - - -
15/04:30am 10.1 WSW 4 6 1020.9 - 0.0 - - 10 - - - -
15/04:00am 10.3 WSW 5 7 1020.7 - 0.0 - - 10 - - - -
15/03:30am 10.6 WSW 5 7 1020.7 - 0.0 - - 10 - - - -
15/03:00am 11.0 W 5 7 1020.8 - 0.0 - - 10 - - - -
15/02:30am 11.5 WSW 5 7 1020.9 - 0.0 - - 10 - - - -
15/02:00am 12.6 W 6 8 1021.1 - 0.0 - - 10 - - - -
15/01:30am 13.0 W 6 9 1021.3 - 0.0 - - 10 - - - -
15/01:00am 13.0 W 6 10 1021.5 - 0.0 - - 10 - - - -
15/12:30am 13.1 W 7 10 1021.5 - 0.0 - - 10 - - - -
15/12:00am 13.1 W 7 9 1021.6 - 0.0 - - 10 - - - -
 
Date/Time
EST
Temp

°C
Wind Pressure Rain
since 9am
mm
Weather Cloud Vis
km
Sea
Height
m
Swell
Dir
 
Speed
knots
Gust
knots
hPa Trend Height
m
Period
s
Dir
14/11:30pm 12.9 W 5 7 1021.8 - 0.0 - - 10 - - - -
14/11:00pm 14.2 WSW 7 10 1021.9 - 0.0 - - 10 - - - -
14/10:30pm 13.5 WSW 6 9 1022.1 - 0.0 - - 10 - - - -
14/10:00pm 13.7 WSW 4 6 1022.2 - 0.0 - - 10 - - - -
14/09:30pm 14.7 SW 7 9 1022.3 - 0.0 - - 10 - - - -
14/09:00pm 15.4 SW 11 14 1022.1 - 0.0 - - 10 - - - -
14/08:30pm 15.5 SW 11 14 1022.3 - 0.0 - Partly cloudy 10 - - - -
14/08:00pm 16.0 WSW 8 12 1022.2 - 0.0 - Partly cloudy 10 - - - -
14/07:30pm 16.2 WSW 7 11 1022.1 - 0.0 - Cloudy 10 - - - -
14/07:00pm 16.0 WSW 6 8 1021.8 - 0.0 - Partly cloudy 10 - - - -
14/06:30pm 15.9 WSW 6 9 1021.4 - 0.0 - - 10 - - - -
14/06:00pm 16.5 SW 7 9 1021.0 - 0.0 - - 10 - - - -
14/05:30pm 17.5 S 10 15 1020.6 - 0.0 - - 10 - - - -
14/05:00pm 18.3 S 10 14 1020.4 - 0.0 - - 10 - - - -
14/04:30pm 18.2 S 14 18 1020.3 - 0.0 - - 10 - - - -
14/04:00pm 19.0 S 13 19 1020.2 - 0.0 - - 10 - - - -
14/03:30pm 19.4 S 14 19 1019.9 - 0.0 - - 10 - - - -
14/03:00pm 19.7 S 15 23 1019.9 - 0.0 - - 10 - - - -
14/02:30pm 19.5 S 15 21 1020.0 - 0.0 - - 10 - - - -
14/02:00pm 20.1 SSE 14 19 1020.0 - 0.0 - - 10 - - - -
14/01:30pm 20.2 S 13 19 1020.0 - 0.0 - - 10 - - - -
14/01:00pm 19.2 S 12 16 1020.2 - 0.0 - Partly cloudy 10 - - - -
14/12:30pm 19.7 S 9 16 1020.7 - 0.0 - Partly cloudy 10 - - - -
14/12:00pm 19.8 S 10 14 1021.0 - 0.0 - Partly cloudy 10 - - - -
14/11:30am 20.1 SSW 11 15 1021.4 - 0.0 - Partly cloudy 10 - - - -
14/11:00am 19.7 SSW 13 19 1021.5 - 0.0 - - 10 - - - -

Other Formats:

Comma delimited format used in spreadsheet applications
http://www.bom.gov.au/fwo/IDN60701/IDN60701.95937.axf

JavaScript Object Notation format (JSON) in row-major order
http://www.bom.gov.au/fwo/IDN60701/IDN60701.95937.json